sensor_id;sensor_type;location;lat;lon;timestamp;P1;durP1;ratioP1;P2;durP2;ratioP2
74293;SDS011;64044;59.904;10.738;2022-12-20T00:00:12;12.23;;;6.43;;
74293;SDS011;64044;59.904;10.738;2022-12-20T00:02:38;11.85;;;6.72;;
74293;SDS011;64044;59.904;10.738;2022-12-20T00:05:04;12.60;;;6.93;;
74293;SDS011;64044;59.904;10.738;2022-12-20T00:07:29;13.25;;;7.22;;
74293;SDS011;64044;59.904;10.738;2022-12-20T00:09:56;11.93;;;6.45;;
74293;SDS011;64044;59.904;10.738;2022-12-20T00:12:21;12.13;;;6.78;;
74293;SDS011;64044;59.904;10.738;2022-12-20T00:14:47;12.02;;;5.90;;
74293;SDS011;64044;59.904;10.738;2022-12-20T00:17:13;14.48;;;6.53;;
74293;SDS011;64044;59.904;10.738;2022-12-20T00:19:39;9.70;;;6.60;;
74293;SDS011;64044;59.904;10.738;2022-12-20T00:22:04;14.27;;;6.57;;
74293;SDS011;64044;59.904;10.738;2022-12-20T00:24:30;11.90;;;6.28;;
74293;SDS011;64044;59.904;10.738;2022-12-20T00:26:57;11.20;;;6.60;;
74293;SDS011;64044;59.904;10.738;2022-12-20T00:29:22;12.48;;;6.60;;
74293;SDS011;64044;59.904;10.738;2022-12-20T00:31:48;9.75;;;5.97;;
74293;SDS011;64044;59.904;10.738;2022-12-20T00:34:13;8.13;;;4.80;;
74293;SDS011;64044;59.904;10.738;2022-12-20T00:36:39;11.15;;;5.60;;
74293;SDS011;64044;59.904;10.738;2022-12-20T00:39:05;8.15;;;4.75;;
74293;SDS011;64044;59.904;10.738;2022-12-20T00:41:31;7.35;;;4.22;;
74293;SDS011;64044;59.904;10.738;2022-12-20T00:43:58;8.02;;;4.15;;
74293;SDS011;64044;59.904;10.738;2022-12-20T00:46:24;9.85;;;4.38;;
74293;SDS011;64044;59.904;10.738;2022-12-20T00:48:50;8.18;;;4.40;;
74293;SDS011;64044;59.904;10.738;2022-12-20T00:51:18;6.72;;;3.80;;
74293;SDS011;64044;59.904;10.738;2022-12-20T00:53:45;8.85;;;5.05;;
74293;SDS011;64044;59.904;10.738;2022-12-20T00:56:11;9.85;;;4.60;;
74293;SDS011;64044;59.904;10.738;2022-12-20T00:58:38;10.35;;;4.95;;
74293;SDS011;64044;59.904;10.738;2022-12-20T01:01:06;9.48;;;4.50;;
74293;SDS011;64044;59.904;10.738;2022-12-20T01:03:38;8.80;;;4.95;;
74293;SDS011;64044;59.904;10.738;2022-12-20T01:06:04;7.28;;;4.82;;
74293;SDS011;64044;59.904;10.738;2022-12-20T01:08:30;8.77;;;5.03;;
74293;SDS011;64044;59.904;10.738;2022-12-20T01:10:59;7.57;;;4.50;;
74293;SDS011;64044;59.904;10.738;2022-12-20T01:13:25;7.93;;;4.85;;
74293;SDS011;64044;59.904;10.738;2022-12-20T01:15:51;8.63;;;4.80;;
74293;SDS011;64044;59.904;10.738;2022-12-20T01:18:17;8.45;;;4.65;;
74293;SDS011;64044;59.904;10.738;2022-12-20T01:20:43;7.70;;;4.85;;
74293;SDS011;64044;59.904;10.738;2022-12-20T01:23:08;9.68;;;5.15;;
74293;SDS011;64044;59.904;10.738;2022-12-20T01:25:34;10.60;;;5.70;;
74293;SDS011;64044;59.904;10.738;2022-12-20T01:27:59;9.45;;;5.00;;
74293;SDS011;64044;59.904;10.738;2022-12-20T01:30:25;8.05;;;4.47;;
74293;SDS011;64044;59.904;10.738;2022-12-20T01:32:50;9.77;;;4.45;;
74293;SDS011;64044;59.904;10.738;2022-12-20T01:35:16;7.70;;;4.55;;
74293;SDS011;64044;59.904;10.738;2022-12-20T01:37:42;7.20;;;4.40;;
74293;SDS011;64044;59.904;10.738;2022-12-20T01:40:08;8.48;;;4.43;;
74293;SDS011;64044;59.904;10.738;2022-12-20T01:42:34;9.25;;;4.07;;
74293;SDS011;64044;59.904;10.738;2022-12-20T01:45:00;8.15;;;4.85;;
74293;SDS011;64044;59.904;10.738;2022-12-20T01:47:28;6.38;;;4.03;;
74293;SDS011;64044;59.904;10.738;2022-12-20T01:49:55;8.15;;;4.07;;
74293;SDS011;64044;59.904;10.738;2022-12-20T01:52:26;7.80;;;4.80;;
74293;SDS011;64044;59.904;10.738;2022-12-20T01:55:06;7.55;;;4.35;;
74293;SDS011;64044;59.904;10.738;2022-12-20T02:00:13;5.63;;;3.50;;
74293;SDS011;64044;59.904;10.738;2022-12-20T02:02:40;5.95;;;3.78;;
74293;SDS011;64044;59.904;10.738;2022-12-20T02:05:07;4.97;;;3.35;;
74293;SDS011;64044;59.904;10.738;2022-12-20T02:07:33;5.30;;;3.35;;
74293;SDS011;64044;59.904;10.738;2022-12-20T02:10:01;5.78;;;3.92;;
74293;SDS011;64044;59.904;10.738;2022-12-20T02:12:30;7.10;;;4.22;;
74293;SDS011;64044;59.904;10.738;2022-12-20T02:31:44;5.65;;;3.17;;
74293;SDS011;64044;59.904;10.738;2022-12-20T02:34:19;4.95;;;3.15;;
74293;SDS011;64044;59.904;10.738;2022-12-20T02:36:49;5.57;;;3.65;;
74293;SDS011;64044;59.904;10.738;2022-12-20T02:39:14;4.97;;;3.22;;
74293;SDS011;64044;59.904;10.738;2022-12-20T02:42:03;5.82;;;3.47;;
74293;SDS011;64044;59.904;10.738;2022-12-20T02:44:31;5.50;;;3.60;;
74293;SDS011;64044;59.904;10.738;2022-12-20T02:47:19;4.40;;;3.35;;
74293;SDS011;64044;59.904;10.738;2022-12-20T02:49:52;4.85;;;3.15;;
74293;SDS011;64044;59.904;10.738;2022-12-20T02:52:20;5.13;;;3.45;;
74293;SDS011;64044;59.904;10.738;2022-12-20T02:54:51;5.72;;;3.38;;
74293;SDS011;64044;59.904;10.738;2022-12-20T02:57:19;4.40;;;3.13;;
74293;SDS011;64044;59.904;10.738;2022-12-20T03:00:02;4.60;;;2.97;;
74293;SDS011;64044;59.904;10.738;2022-12-20T03:02:38;4.50;;;3.10;;
74293;SDS011;64044;59.904;10.738;2022-12-20T03:05:25;5.32;;;2.97;;
74293;SDS011;64044;59.904;10.738;2022-12-20T03:07:51;3.65;;;2.75;;
74293;SDS011;64044;59.904;10.738;2022-12-20T03:10:17;4.70;;;3.20;;
74293;SDS011;64044;59.904;10.738;2022-12-20T03:12:44;4.35;;;2.63;;
74293;SDS011;64044;59.904;10.738;2022-12-20T03:15:10;4.63;;;2.83;;
74293;SDS011;64044;59.904;10.738;2022-12-20T03:17:36;5.70;;;3.08;;
74293;SDS011;64044;59.904;10.738;2022-12-20T03:20:02;4.45;;;2.97;;
74293;SDS011;64044;59.904;10.738;2022-12-20T03:22:30;4.32;;;2.72;;
74293;SDS011;64044;59.904;10.738;2022-12-20T03:24:57;3.95;;;2.65;;
74293;SDS011;64044;59.904;10.738;2022-12-20T03:27:23;4.38;;;2.95;;
74293;SDS011;64044;59.904;10.738;2022-12-20T03:29:50;4.80;;;3.08;;
74293;SDS011;64044;59.904;10.738;2022-12-20T03:32:15;5.72;;;2.97;;
74293;SDS011;64044;59.904;10.738;2022-12-20T03:34:44;4.93;;;2.95;;
74293;SDS011;64044;59.904;10.738;2022-12-20T03:37:10;4.72;;;3.15;;
74293;SDS011;64044;59.904;10.738;2022-12-20T03:39:35;4.30;;;2.95;;
74293;SDS011;64044;59.904;10.738;2022-12-20T03:42:01;4.72;;;2.70;;
74293;SDS011;64044;59.904;10.738;2022-12-20T03:44:27;3.53;;;2.65;;
74293;SDS011;64044;59.904;10.738;2022-12-20T03:46:52;3.75;;;2.78;;
74293;SDS011;64044;59.904;10.738;2022-12-20T03:49:18;5.45;;;2.88;;
74293;SDS011;64044;59.904;10.738;2022-12-20T03:51:43;4.80;;;2.70;;
74293;SDS011;64044;59.904;10.738;2022-12-20T03:54:09;4.20;;;3.03;;
74293;SDS011;64044;59.904;10.738;2022-12-20T03:56:35;4.57;;;2.58;;
74293;SDS011;64044;59.904;10.738;2022-12-20T03:59:00;3.70;;;2.30;;
74293;SDS011;64044;59.904;10.738;2022-12-20T04:01:27;4.32;;;2.53;;
74293;SDS011;64044;59.904;10.738;2022-12-20T04:03:53;3.80;;;2.65;;
74293;SDS011;64044;59.904;10.738;2022-12-20T04:06:20;2.88;;;2.08;;
74293;SDS011;64044;59.904;10.738;2022-12-20T04:08:46;2.80;;;2.38;;
74293;SDS011;64044;59.904;10.738;2022-12-20T04:11:13;3.40;;;2.38;;
74293;SDS011;64044;59.904;10.738;2022-12-20T04:13:42;3.75;;;2.60;;
74293;SDS011;64044;59.904;10.738;2022-12-20T04:16:12;2.85;;;2.35;;
74293;SDS011;64044;59.904;10.738;2022-12-20T04:18:39;5.53;;;2.92;;
74293;SDS011;64044;59.904;10.738;2022-12-20T04:21:05;3.30;;;2.55;;
74293;SDS011;64044;59.904;10.738;2022-12-20T04:23:35;3.50;;;2.20;;
74293;SDS011;64044;59.904;10.738;2022-12-20T04:26:02;4.80;;;3.00;;
74293;SDS011;64044;59.904;10.738;2022-12-20T04:28:28;4.28;;;3.00;;
74293;SDS011;64044;59.904;10.738;2022-12-20T04:30:54;6.10;;;3.05;;
74293;SDS011;64044;59.904;10.738;2022-12-20T04:33:20;4.07;;;2.55;;
74293;SDS011;64044;59.904;10.738;2022-12-20T04:35:46;5.35;;;2.50;;
74293;SDS011;64044;59.904;10.738;2022-12-20T04:38:12;3.15;;;2.38;;
74293;SDS011;64044;59.904;10.738;2022-12-20T04:40:37;4.63;;;2.67;;
74293;SDS011;64044;59.904;10.738;2022-12-20T04:43:03;6.80;;;2.60;;
74293;SDS011;64044;59.904;10.738;2022-12-20T04:45:29;3.63;;;2.50;;
74293;SDS011;64044;59.904;10.738;2022-12-20T04:47:54;4.70;;;2.70;;
74293;SDS011;64044;59.904;10.738;2022-12-20T04:50:20;4.82;;;2.65;;
74293;SDS011;64044;59.904;10.738;2022-12-20T04:52:45;5.18;;;2.50;;
74293;SDS011;64044;59.904;10.738;2022-12-20T04:55:30;4.75;;;2.30;;
74293;SDS011;64044;59.904;10.738;2022-12-20T04:57:55;4.25;;;2.38;;
74293;SDS011;64044;59.904;10.738;2022-12-20T05:00:21;7.05;;;2.50;;
74293;SDS011;64044;59.904;10.738;2022-12-20T05:02:47;3.25;;;2.38;;
74293;SDS011;64044;59.904;10.738;2022-12-20T05:05:12;2.92;;;2.10;;
74293;SDS011;64044;59.904;10.738;2022-12-20T05:07:38;4.65;;;2.40;;
74293;SDS011;64044;59.904;10.738;2022-12-20T05:10:04;7.40;;;2.50;;
74293;SDS011;64044;59.904;10.738;2022-12-20T05:12:30;3.75;;;2.35;;
74293;SDS011;64044;59.904;10.738;2022-12-20T05:14:55;3.10;;;2.33;;
74293;SDS011;64044;59.904;10.738;2022-12-20T05:17:21;6.65;;;2.30;;
74293;SDS011;64044;59.904;10.738;2022-12-20T05:19:47;5.85;;;2.72;;
74293;SDS011;64044;59.904;10.738;2022-12-20T05:22:12;3.38;;;2.13;;
74293;SDS011;64044;59.904;10.738;2022-12-20T05:24:57;5.53;;;2.60;;
74293;SDS011;64044;59.904;10.738;2022-12-20T05:27:41;4.38;;;2.20;;
74293;SDS011;64044;59.904;10.738;2022-12-20T05:30:07;4.78;;;2.90;;
74293;SDS011;64044;59.904;10.738;2022-12-20T05:32:33;6.15;;;2.88;;
74293;SDS011;64044;59.904;10.738;2022-12-20T05:34:58;7.30;;;3.20;;
74293;SDS011;64044;59.904;10.738;2022-12-20T05:37:24;5.03;;;2.80;;
74293;SDS011;64044;59.904;10.738;2022-12-20T05:39:50;6.55;;;2.92;;
74293;SDS011;64044;59.904;10.738;2022-12-20T05:42:15;4.28;;;2.60;;
74293;SDS011;64044;59.904;10.738;2022-12-20T05:44:41;6.35;;;3.10;;
74293;SDS011;64044;59.904;10.738;2022-12-20T05:47:07;7.68;;;3.38;;
74293;SDS011;64044;59.904;10.738;2022-12-20T05:49:33;6.75;;;3.15;;
74293;SDS011;64044;59.904;10.738;2022-12-20T05:51:59;7.72;;;3.38;;
74293;SDS011;64044;59.904;10.738;2022-12-20T05:54:26;8.95;;;3.55;;
74293;SDS011;64044;59.904;10.738;2022-12-20T05:56:51;7.78;;;3.10;;
74293;SDS011;64044;59.904;10.738;2022-12-20T05:59:17;3.95;;;2.90;;
74293;SDS011;64044;59.904;10.738;2022-12-20T06:04:14;7.88;;;3.13;;
74293;SDS011;64044;59.904;10.738;2022-12-20T06:06:39;7.70;;;3.17;;
74293;SDS011;64044;59.904;10.738;2022-12-20T06:09:05;10.68;;;3.83;;
74293;SDS011;64044;59.904;10.738;2022-12-20T06:11:30;9.65;;;3.47;;
74293;SDS011;64044;59.904;10.738;2022-12-20T06:13:56;8.55;;;3.42;;
74293;SDS011;64044;59.904;10.738;2022-12-20T06:16:23;11.48;;;3.53;;
74293;SDS011;64044;59.904;10.738;2022-12-20T06:18:49;6.22;;;3.45;;
74293;SDS011;64044;59.904;10.738;2022-12-20T06:21:15;4.30;;;3.15;;
74293;SDS011;64044;59.904;10.738;2022-12-20T06:23:41;6.97;;;2.88;;
74293;SDS011;64044;59.904;10.738;2022-12-20T06:26:07;8.07;;;3.22;;
74293;SDS011;64044;59.904;10.738;2022-12-20T06:28:33;11.82;;;3.60;;
74293;SDS011;64044;59.904;10.738;2022-12-20T06:31:00;6.85;;;3.58;;
74293;SDS011;64044;59.904;10.738;2022-12-20T06:33:25;5.40;;;3.42;;
74293;SDS011;64044;59.904;10.738;2022-12-20T06:35:51;12.15;;;4.43;;
74293;SDS011;64044;59.904;10.738;2022-12-20T06:38:17;9.07;;;3.42;;
74293;SDS011;64044;59.904;10.738;2022-12-20T06:40:43;9.55;;;4.53;;
74293;SDS011;64044;59.904;10.738;2022-12-20T06:43:08;13.68;;;4.55;;
74293;SDS011;64044;59.904;10.738;2022-12-20T06:45:34;6.90;;;4.05;;
74293;SDS011;64044;59.904;10.738;2022-12-20T06:48:00;10.35;;;4.18;;
74293;SDS011;64044;59.904;10.738;2022-12-20T06:50:26;13.63;;;4.13;;
74293;SDS011;64044;59.904;10.738;2022-12-20T06:52:51;18.00;;;4.68;;
74293;SDS011;64044;59.904;10.738;2022-12-20T06:55:17;11.10;;;4.15;;
74293;SDS011;64044;59.904;10.738;2022-12-20T06:57:43;14.23;;;4.50;;
74293;SDS011;64044;59.904;10.738;2022-12-20T07:00:09;7.88;;;3.58;;
74293;SDS011;64044;59.904;10.738;2022-12-20T07:02:36;12.10;;;4.07;;
74293;SDS011;64044;59.904;10.738;2022-12-20T07:05:02;8.82;;;4.10;;
74293;SDS011;64044;59.904;10.738;2022-12-20T07:07:28;7.38;;;3.75;;
74293;SDS011;64044;59.904;10.738;2022-12-20T07:09:54;12.43;;;4.63;;
74293;SDS011;64044;59.904;10.738;2022-12-20T07:12:19;9.32;;;4.43;;
74293;SDS011;64044;59.904;10.738;2022-12-20T07:14:45;12.98;;;4.30;;
74293;SDS011;64044;59.904;10.738;2022-12-20T07:17:11;10.85;;;4.43;;
74293;SDS011;64044;59.904;10.738;2022-12-20T07:19:36;13.10;;;4.68;;
74293;SDS011;64044;59.904;10.738;2022-12-20T07:22:02;13.40;;;4.70;;
74293;SDS011;64044;59.904;10.738;2022-12-20T07:24:28;10.50;;;5.35;;
74293;SDS011;64044;59.904;10.738;2022-12-20T07:26:54;13.43;;;4.50;;
74293;SDS011;64044;59.904;10.738;2022-12-20T07:29:19;19.25;;;5.53;;
74293;SDS011;64044;59.904;10.738;2022-12-20T07:31:45;15.65;;;5.57;;
74293;SDS011;64044;59.904;10.738;2022-12-20T07:34:11;12.95;;;5.25;;
74293;SDS011;64044;59.904;10.738;2022-12-20T07:36:37;14.50;;;5.32;;
74293;SDS011;64044;59.904;10.738;2022-12-20T07:39:02;16.95;;;5.03;;
74293;SDS011;64044;59.904;10.738;2022-12-20T07:41:28;11.32;;;4.78;;
74293;SDS011;64044;59.904;10.738;2022-12-20T07:43:53;14.32;;;5.30;;
74293;SDS011;64044;59.904;10.738;2022-12-20T07:46:19;14.57;;;4.82;;
74293;SDS011;64044;59.904;10.738;2022-12-20T07:48:45;17.52;;;5.43;;
74293;SDS011;64044;59.904;10.738;2022-12-20T07:51:13;12.43;;;5.25;;
74293;SDS011;64044;59.904;10.738;2022-12-20T07:53:43;9.25;;;4.38;;
74293;SDS011;64044;59.904;10.738;2022-12-20T07:56:17;17.48;;;4.95;;
74293;SDS011;64044;59.904;10.738;2022-12-20T07:58:43;17.80;;;7.45;;
74293;SDS011;64044;59.904;10.738;2022-12-20T08:01:09;11.63;;;5.63;;
74293;SDS011;64044;59.904;10.738;2022-12-20T08:06:29;8.70;;;5.22;;
74293;SDS011;64044;59.904;10.738;2022-12-20T08:08:57;9.60;;;4.43;;
74293;SDS011;64044;59.904;10.738;2022-12-20T08:11:26;9.03;;;4.13;;
74293;SDS011;64044;59.904;10.738;2022-12-20T08:13:54;4.90;;;4.00;;
74293;SDS011;64044;59.904;10.738;2022-12-20T08:16:20;5.38;;;3.60;;
74293;SDS011;64044;59.904;10.738;2022-12-20T08:18:45;5.75;;;3.95;;
74293;SDS011;64044;59.904;10.738;2022-12-20T08:21:11;6.88;;;3.85;;
74293;SDS011;64044;59.904;10.738;2022-12-20T08:23:38;6.68;;;4.13;;
74293;SDS011;64044;59.904;10.738;2022-12-20T08:26:04;6.80;;;4.20;;
74293;SDS011;64044;59.904;10.738;2022-12-20T08:28:30;7.50;;;4.35;;
74293;SDS011;64044;59.904;10.738;2022-12-20T08:30:59;8.93;;;4.00;;
74293;SDS011;64044;59.904;10.738;2022-12-20T08:33:26;8.67;;;4.83;;
74293;SDS011;64044;59.904;10.738;2022-12-20T08:35:58;11.60;;;4.97;;
74293;SDS011;64044;59.904;10.738;2022-12-20T08:38:28;7.93;;;4.47;;
74293;SDS011;64044;59.904;10.738;2022-12-20T08:40:55;13.23;;;5.30;;
74293;SDS011;64044;59.904;10.738;2022-12-20T08:43:20;12.13;;;5.35;;
74293;SDS011;64044;59.904;10.738;2022-12-20T08:45:53;7.23;;;4.53;;
74293;SDS011;64044;59.904;10.738;2022-12-20T08:48:20;9.55;;;4.95;;
74293;SDS011;64044;59.904;10.738;2022-12-20T08:50:46;7.68;;;4.43;;
74293;SDS011;64044;59.904;10.738;2022-12-20T08:53:12;8.25;;;4.57;;
74293;SDS011;64044;59.904;10.738;2022-12-20T08:55:37;7.03;;;4.47;;
74293;SDS011;64044;59.904;10.738;2022-12-20T08:58:04;7.55;;;4.13;;
74293;SDS011;64044;59.904;10.738;2022-12-20T09:00:30;7.28;;;4.50;;
74293;SDS011;64044;59.904;10.738;2022-12-20T09:02:55;6.28;;;4.25;;
74293;SDS011;64044;59.904;10.738;2022-12-20T09:05:21;11.00;;;5.53;;
74293;SDS011;64044;59.904;10.738;2022-12-20T09:07:46;6.80;;;4.13;;
74293;SDS011;64044;59.904;10.738;2022-12-20T09:10:12;7.65;;;4.07;;
74293;SDS011;64044;59.904;10.738;2022-12-20T09:12:38;10.70;;;4.53;;
74293;SDS011;64044;59.904;10.738;2022-12-20T09:15:04;8.02;;;5.05;;
74293;SDS011;64044;59.904;10.738;2022-12-20T09:17:30;7.97;;;3.53;;
74293;SDS011;64044;59.904;10.738;2022-12-20T09:19:56;9.88;;;3.90;;
74293;SDS011;64044;59.904;10.738;2022-12-20T09:22:21;6.78;;;3.88;;
74293;SDS011;64044;59.904;10.738;2022-12-20T09:24:47;6.90;;;3.42;;
74293;SDS011;64044;59.904;10.738;2022-12-20T09:27:13;7.47;;;3.80;;
74293;SDS011;64044;59.904;10.738;2022-12-20T09:29:39;7.63;;;4.07;;
74293;SDS011;64044;59.904;10.738;2022-12-20T09:32:04;10.73;;;5.68;;
74293;SDS011;64044;59.904;10.738;2022-12-20T09:34:30;10.85;;;4.72;;
74293;SDS011;64044;59.904;10.738;2022-12-20T09:36:56;11.13;;;5.07;;
74293;SDS011;64044;59.904;10.738;2022-12-20T09:39:22;16.13;;;7.43;;
74293;SDS011;64044;59.904;10.738;2022-12-20T09:41:47;19.50;;;8.57;;
74293;SDS011;64044;59.904;10.738;2022-12-20T09:44:46;19.70;;;8.13;;
74293;SDS011;64044;59.904;10.738;2022-12-20T09:47:06;19.90;;;9.93;;
74293;SDS011;64044;59.904;10.738;2022-12-20T09:49:40;25.92;;;10.00;;
74293;SDS011;64044;59.904;10.738;2022-12-20T09:55:12;19.00;;;9.25;;
74293;SDS011;64044;59.904;10.738;2022-12-20T10:00:34;15.68;;;7.15;;
74293;SDS011;64044;59.904;10.738;2022-12-20T10:03:17;17.52;;;8.40;;
74293;SDS011;64044;59.904;10.738;2022-12-20T10:05:53;16.00;;;8.40;;
74293;SDS011;64044;59.904;10.738;2022-12-20T10:16:46;10.30;;;5.67;;
74293;SDS011;64044;59.904;10.738;2022-12-20T10:22:34;8.27;;;4.90;;
74293;SDS011;64044;59.904;10.738;2022-12-20T10:25:21;7.18;;;4.78;;
74293;SDS011;64044;59.904;10.738;2022-12-20T10:27:49;6.55;;;3.97;;
74293;SDS011;64044;59.904;10.738;2022-12-20T10:30:18;6.03;;;4.10;;
74293;SDS011;64044;59.904;10.738;2022-12-20T10:32:47;9.90;;;4.90;;
74293;SDS011;64044;59.904;10.738;2022-12-20T10:42:58;7.70;;;4.88;;
74293;SDS011;64044;59.904;10.738;2022-12-20T10:45:27;7.68;;;4.93;;
74293;SDS011;64044;59.904;10.738;2022-12-20T10:47:57;8.48;;;4.25;;
74293;SDS011;64044;59.904;10.738;2022-12-20T10:50:24;8.52;;;4.55;;
74293;SDS011;64044;59.904;10.738;2022-12-20T10:55:41;8.02;;;4.20;;
74293;SDS011;64044;59.904;10.738;2022-12-20T11:00:54;5.80;;;3.90;;
74293;SDS011;64044;59.904;10.738;2022-12-20T11:03:53;5.68;;;3.50;;
74293;SDS011;64044;59.904;10.738;2022-12-20T11:06:20;6.10;;;3.83;;
74293;SDS011;64044;59.904;10.738;2022-12-20T11:08:47;7.07;;;4.00;;
74293;SDS011;64044;59.904;10.738;2022-12-20T11:11:17;6.93;;;3.88;;
74293;SDS011;64044;59.904;10.738;2022-12-20T11:13:48;7.10;;;4.15;;
74293;SDS011;64044;59.904;10.738;2022-12-20T11:21:45;6.35;;;3.80;;
74293;SDS011;64044;59.904;10.738;2022-12-20T11:38:41;23.38;;;8.27;;
74293;SDS011;64044;59.904;10.738;2022-12-20T11:41:17;10.40;;;4.20;;
74293;SDS011;64044;59.904;10.738;2022-12-20T11:44:08;9.13;;;4.88;;
74293;SDS011;64044;59.904;10.738;2022-12-20T11:54:40;12.75;;;5.55;;
74293;SDS011;64044;59.904;10.738;2022-12-20T11:57:13;13.65;;;6.35;;
74293;SDS011;64044;59.904;10.738;2022-12-20T12:00:01;12.45;;;6.15;;
74293;SDS011;64044;59.904;10.738;2022-12-20T12:05:06;13.68;;;6.35;;
74293;SDS011;64044;59.904;10.738;2022-12-20T12:07:44;15.50;;;7.25;;
74293;SDS011;64044;59.904;10.738;2022-12-20T12:10:16;16.33;;;5.95;;
74293;SDS011;64044;59.904;10.738;2022-12-20T12:12:49;7.28;;;4.13;;
74293;SDS011;64044;59.904;10.738;2022-12-20T12:18:14;4.35;;;3.13;;
74293;SDS011;64044;59.904;10.738;2022-12-20T12:26:23;15.27;;;6.82;;
74293;SDS011;64044;59.904;10.738;2022-12-20T12:28:55;17.42;;;8.80;;
74293;SDS011;64044;59.904;10.738;2022-12-20T12:32:13;18.42;;;7.85;;
74293;SDS011;64044;59.904;10.738;2022-12-20T12:45:14;16.08;;;4.85;;
74293;SDS011;64044;59.904;10.738;2022-12-20T12:47:50;11.00;;;5.50;;
74293;SDS011;64044;59.904;10.738;2022-12-20T12:50:34;12.82;;;4.20;;
74293;SDS011;64044;59.904;10.738;2022-12-20T12:53:04;19.35;;;4.13;;
74293;SDS011;64044;59.904;10.738;2022-12-20T12:55:37;6.13;;;3.15;;
74293;SDS011;64044;59.904;10.738;2022-12-20T13:03:14;4.05;;;2.75;;
74293;SDS011;64044;59.904;10.738;2022-12-20T13:05:41;4.75;;;3.25;;
74293;SDS011;64044;59.904;10.738;2022-12-20T13:08:14;9.38;;;3.45;;
74293;SDS011;64044;59.904;10.738;2022-12-20T13:13:17;9.68;;;3.17;;
74293;SDS011;64044;59.904;10.738;2022-12-20T13:15:47;8.00;;;3.42;;
74293;SDS011;64044;59.904;10.738;2022-12-20T13:20:39;12.20;;;4.20;;
74293;SDS011;64044;59.904;10.738;2022-12-20T13:25:38;25.45;;;6.30;;
74293;SDS011;64044;59.904;10.738;2022-12-20T13:41:30;10.00;;;5.10;;
74293;SDS011;64044;59.904;10.738;2022-12-20T13:43:59;16.95;;;6.30;;
74293;SDS011;64044;59.904;10.738;2022-12-20T13:49:11;13.98;;;6.75;;
74293;SDS011;64044;59.904;10.738;2022-12-20T13:54:40;15.63;;;7.65;;
74293;SDS011;64044;59.904;10.738;2022-12-20T13:57:07;26.13;;;10.15;;
74293;SDS011;64044;59.904;10.738;2022-12-20T13:59:39;24.38;;;9.18;;
74293;SDS011;64044;59.904;10.738;2022-12-20T14:05:13;21.50;;;9.95;;
74293;SDS011;64044;59.904;10.738;2022-12-20T14:07:50;26.52;;;9.30;;
74293;SDS011;64044;59.904;10.738;2022-12-20T14:10:25;20.90;;;9.05;;
74293;SDS011;64044;59.904;10.738;2022-12-20T14:12:53;19.67;;;9.43;;
74293;SDS011;64044;59.904;10.738;2022-12-20T14:15:27;21.92;;;10.68;;
74293;SDS011;64044;59.904;10.738;2022-12-20T14:18:03;16.63;;;8.68;;
74293;SDS011;64044;59.904;10.738;2022-12-20T14:20:32;23.92;;;8.95;;
74293;SDS011;64044;59.904;10.738;2022-12-20T14:23:04;30.95;;;10.50;;
74293;SDS011;64044;59.904;10.738;2022-12-20T14:25:45;21.25;;;9.60;;
74293;SDS011;64044;59.904;10.738;2022-12-20T14:31:01;44.15;;;10.43;;
74293;SDS011;64044;59.904;10.738;2022-12-20T14:33:29;16.50;;;8.38;;
74293;SDS011;64044;59.904;10.738;2022-12-20T14:38:44;17.92;;;7.68;;
74293;SDS011;64044;59.904;10.738;2022-12-20T14:44:12;18.60;;;8.82;;
74293;SDS011;64044;59.904;10.738;2022-12-20T14:46:45;14.82;;;7.57;;
74293;SDS011;64044;59.904;10.738;2022-12-20T14:49:26;17.48;;;7.88;;
74293;SDS011;64044;59.904;10.738;2022-12-20T14:54:44;11.90;;;6.65;;
74293;SDS011;64044;59.904;10.738;2022-12-20T14:57:20;13.53;;;6.70;;
74293;SDS011;64044;59.904;10.738;2022-12-20T15:13:22;21.40;;;11.15;;
74293;SDS011;64044;59.904;10.738;2022-12-20T15:15:54;19.08;;;11.63;;
74293;SDS011;64044;59.904;10.738;2022-12-20T15:18:23;16.75;;;9.23;;
74293;SDS011;64044;59.904;10.738;2022-12-20T15:20:56;16.52;;;8.75;;
74293;SDS011;64044;59.904;10.738;2022-12-20T15:23:30;14.48;;;8.15;;
74293;SDS011;64044;59.904;10.738;2022-12-20T15:25:57;17.15;;;8.85;;
74293;SDS011;64044;59.904;10.738;2022-12-20T15:28:23;16.13;;;8.80;;
74293;SDS011;64044;59.904;10.738;2022-12-20T15:30:51;13.85;;;7.32;;
74293;SDS011;64044;59.904;10.738;2022-12-20T15:33:22;12.07;;;6.60;;
74293;SDS011;64044;59.904;10.738;2022-12-20T15:35:50;14.43;;;7.68;;
74293;SDS011;64044;59.904;10.738;2022-12-20T15:38:18;16.27;;;7.07;;
74293;SDS011;64044;59.904;10.738;2022-12-20T15:40:49;11.98;;;6.93;;
74293;SDS011;64044;59.904;10.738;2022-12-20T15:43:18;14.30;;;6.55;;
74293;SDS011;64044;59.904;10.738;2022-12-20T15:45:47;12.77;;;6.68;;
74293;SDS011;64044;59.904;10.738;2022-12-20T15:48:17;11.10;;;6.00;;
74293;SDS011;64044;59.904;10.738;2022-12-20T15:50:48;12.35;;;6.57;;
74293;SDS011;64044;59.904;10.738;2022-12-20T15:53:20;12.35;;;6.93;;
74293;SDS011;64044;59.904;10.738;2022-12-20T15:55:49;11.18;;;5.80;;
74293;SDS011;64044;59.904;10.738;2022-12-20T15:58:15;10.05;;;6.38;;
74293;SDS011;64044;59.904;10.738;2022-12-20T16:00:41;12.80;;;6.85;;
74293;SDS011;64044;59.904;10.738;2022-12-20T16:03:12;15.07;;;7.43;;
74293;SDS011;64044;59.904;10.738;2022-12-20T16:05:44;15.73;;;7.05;;
74293;SDS011;64044;59.904;10.738;2022-12-20T16:08:11;13.68;;;7.28;;
74293;SDS011;64044;59.904;10.738;2022-12-20T16:10:37;12.95;;;7.20;;
74293;SDS011;64044;59.904;10.738;2022-12-20T16:13:03;15.32;;;8.48;;
74293;SDS011;64044;59.904;10.738;2022-12-20T16:15:29;14.77;;;7.97;;
74293;SDS011;64044;59.904;10.738;2022-12-20T16:17:55;15.43;;;7.75;;
74293;SDS011;64044;59.904;10.738;2022-12-20T16:20:21;20.85;;;8.18;;
74293;SDS011;64044;59.904;10.738;2022-12-20T16:22:46;17.73;;;8.35;;
74293;SDS011;64044;59.904;10.738;2022-12-20T16:25:25;14.30;;;7.18;;
74293;SDS011;64044;59.904;10.738;2022-12-20T16:27:53;13.98;;;7.80;;
74293;SDS011;64044;59.904;10.738;2022-12-20T16:30:18;17.48;;;7.78;;
74293;SDS011;64044;59.904;10.738;2022-12-20T16:32:44;15.15;;;8.05;;
74293;SDS011;64044;59.904;10.738;2022-12-20T16:38:08;14.43;;;7.90;;
74293;SDS011;64044;59.904;10.738;2022-12-20T16:40:33;15.23;;;8.23;;
74293;SDS011;64044;59.904;10.738;2022-12-20T16:42:59;14.73;;;7.93;;
74293;SDS011;64044;59.904;10.738;2022-12-20T16:45:26;16.40;;;8.23;;
74293;SDS011;64044;59.904;10.738;2022-12-20T16:47:54;14.18;;;7.75;;
74293;SDS011;64044;59.904;10.738;2022-12-20T16:50:21;13.13;;;8.50;;
74293;SDS011;64044;59.904;10.738;2022-12-20T16:52:49;17.23;;;8.02;;
74293;SDS011;64044;59.904;10.738;2022-12-20T16:55:19;17.90;;;8.90;;
74293;SDS011;64044;59.904;10.738;2022-12-20T16:57:47;18.67;;;8.35;;
74293;SDS011;64044;59.904;10.738;2022-12-20T17:00:23;15.70;;;8.45;;
74293;SDS011;64044;59.904;10.738;2022-12-20T17:02:50;12.05;;;7.28;;
74293;SDS011;64044;59.904;10.738;2022-12-20T17:05:23;14.95;;;7.22;;
74293;SDS011;64044;59.904;10.738;2022-12-20T17:07:49;13.57;;;7.43;;
74293;SDS011;64044;59.904;10.738;2022-12-20T17:10:15;18.30;;;7.28;;
74293;SDS011;64044;59.904;10.738;2022-12-20T17:12:41;10.10;;;6.47;;
74293;SDS011;64044;59.904;10.738;2022-12-20T17:15:15;11.95;;;6.53;;
74293;SDS011;64044;59.904;10.738;2022-12-20T17:17:44;14.07;;;6.72;;
74293;SDS011;64044;59.904;10.738;2022-12-20T17:20:10;11.85;;;6.60;;
74293;SDS011;64044;59.904;10.738;2022-12-20T17:22:37;10.57;;;6.43;;